sensor_id;sensor_type;location;lat;lon;timestamp;temperature;humidity
67165;SHT31;54093;50.014;19.984;2022-10-16T00:05:15;13.46;77.38
67165;SHT31;54093;50.014;19.984;2022-10-16T00:14:36;13.46;78.37
67165;SHT31;54093;50.014;19.984;2022-10-16T00:23:59;13.34;78.72
67165;SHT31;54093;50.014;19.984;2022-10-16T00:33:20;13.42;78.14
67165;SHT31;54093;50.014;19.984;2022-10-16T00:42:41;13.34;78.87
67165;SHT31;54093;50.014;19.984;2022-10-16T00:52:02;13.34;79.15
67165;SHT31;54093;50.014;19.984;2022-10-16T01:01:23;13.34;79.30
67165;SHT31;54093;50.014;19.984;2022-10-16T01:10:58;13.32;79.67
67165;SHT31;54093;50.014;19.984;2022-10-16T01:20:29;13.30;80.18
67165;SHT31;54093;50.014;19.984;2022-10-16T01:30:24;13.32;80.47
67165;SHT31;54093;50.014;19.984;2022-10-16T01:39:47;13.30;80.42
67165;SHT31;54093;50.014;19.984;2022-10-16T01:49:11;13.28;80.87
67165;SHT31;54093;50.014;19.984;2022-10-16T01:58:35;13.30;80.15
67165;SHT31;54093;50.014;19.984;2022-10-16T02:07:58;13.36;79.80
67165;SHT31;54093;50.014;19.984;2022-10-16T02:17:19;13.39;80.12
67165;SHT31;54093;50.014;19.984;2022-10-16T02:26:45;13.33;80.61
67165;SHT31;54093;50.014;19.984;2022-10-16T02:36:08;13.27;81.31
67165;SHT31;54093;50.014;19.984;2022-10-16T02:45:29;13.19;81.58
67165;SHT31;54093;50.014;19.984;2022-10-16T02:54:50;13.13;81.23
67165;SHT31;54093;50.014;19.984;2022-10-16T03:04:10;13.00;81.45
67165;SHT31;54093;50.014;19.984;2022-10-16T03:13:31;12.91;81.59
67165;SHT31;54093;50.014;19.984;2022-10-16T03:22:52;12.91;81.07
67165;SHT31;54093;50.014;19.984;2022-10-16T03:32:13;12.82;81.54
67165;SHT31;54093;50.014;19.984;2022-10-16T03:41:33;12.69;81.70
67165;SHT31;54093;50.014;19.984;2022-10-16T03:50:54;12.58;81.72
67165;SHT31;54093;50.014;19.984;2022-10-16T04:00:15;12.47;81.28
67165;SHT31;54093;50.014;19.984;2022-10-16T04:09:36;12.38;81.25
67165;SHT31;54093;50.014;19.984;2022-10-16T04:18:57;12.34;81.54
67165;SHT31;54093;50.014;19.984;2022-10-16T04:28:17;12.30;81.76
67165;SHT31;54093;50.014;19.984;2022-10-16T04:37:38;12.28;81.74
67165;SHT31;54093;50.014;19.984;2022-10-16T04:46:59;12.20;81.78
67165;SHT31;54093;50.014;19.984;2022-10-16T04:56:20;12.04;81.54
67165;SHT31;54093;50.014;19.984;2022-10-16T05:05:45;11.93;81.48
67165;SHT31;54093;50.014;19.984;2022-10-16T05:15:06;11.85;81.41
67165;SHT31;54093;50.014;19.984;2022-10-16T05:24:27;11.75;81.58
67165;SHT31;54093;50.014;19.984;2022-10-16T05:33:48;11.68;82.08
67165;SHT31;54093;50.014;19.984;2022-10-16T05:43:09;11.73;82.13
67165;SHT31;54093;50.014;19.984;2022-10-16T05:52:30;11.87;81.80
67165;SHT31;54093;50.014;19.984;2022-10-16T06:01:51;12.01;81.41
67165;SHT31;54093;50.014;19.984;2022-10-16T06:11:15;12.03;82.35
67165;SHT31;54093;50.014;19.984;2022-10-16T06:20:37;12.12;82.29
67165;SHT31;54093;50.014;19.984;2022-10-16T06:29:58;12.30;83.20
67165;SHT31;54093;50.014;19.984;2022-10-16T06:39:18;12.61;83.39
67165;SHT31;54093;50.014;19.984;2022-10-16T06:48:39;13.06;85.08
67165;SHT31;54093;50.014;19.984;2022-10-16T06:58:00;13.77;87.24
67165;SHT31;54093;50.014;19.984;2022-10-16T07:07:21;14.55;84.44
67165;SHT31;54093;50.014;19.984;2022-10-16T07:16:45;15.02;82.70
67165;SHT31;54093;50.014;19.984;2022-10-16T07:26:07;15.43;79.67
67165;SHT31;54093;50.014;19.984;2022-10-16T07:35:28;15.63;77.27
67165;SHT31;54093;50.014;19.984;2022-10-16T07:44:49;16.22;76.49
67165;SHT31;54093;50.014;19.984;2022-10-16T07:54:10;16.48;73.90
67165;SHT31;54093;50.014;19.984;2022-10-16T08:03:31;16.32;74.09
67165;SHT31;54093;50.014;19.984;2022-10-16T08:12:52;16.40;73.30
67165;SHT31;54093;50.014;19.984;2022-10-16T08:22:14;16.38;73.64
67165;SHT31;54093;50.014;19.984;2022-10-16T08:31:35;16.58;74.64
67165;SHT31;54093;50.014;19.984;2022-10-16T08:41:14;17.06;72.21
67165;SHT31;54093;50.014;19.984;2022-10-16T08:50:38;17.24;72.25
67165;SHT31;54093;50.014;19.984;2022-10-16T09:00:08;17.83;70.20
67165;SHT31;54093;50.014;19.984;2022-10-16T09:09:54;18.19;68.04
67165;SHT31;54093;50.014;19.984;2022-10-16T09:28:44;18.99;65.90
67165;SHT31;54093;50.014;19.984;2022-10-16T09:38:05;19.14;58.51
67165;SHT31;54093;50.014;19.984;2022-10-16T09:47:29;19.35;59.70
67165;SHT31;54093;50.014;19.984;2022-10-16T09:56:50;19.62;56.35
67165;SHT31;54093;50.014;19.984;2022-10-16T10:06:18;20.14;57.51
67165;SHT31;54093;50.014;19.984;2022-10-16T10:15:41;20.26;54.38
67165;SHT31;54093;50.014;19.984;2022-10-16T10:53:53;20.83;53.31
67165;SHT31;54093;50.014;19.984;2022-10-16T11:13:01;21.03;52.76
67165;SHT31;54093;50.014;19.984;2022-10-16T11:22:37;21.15;55.93
67165;SHT31;54093;50.014;19.984;2022-10-16T11:32:20;21.11;53.88
67165;SHT31;54093;50.014;19.984;2022-10-16T11:41:48;21.06;55.38
67165;SHT31;54093;50.014;19.984;2022-10-16T11:51:29;20.96;55.71
67165;SHT31;54093;50.014;19.984;2022-10-16T12:00:58;20.83;54.36
67165;SHT31;54093;50.014;19.984;2022-10-16T12:10:27;20.72;54.95
67165;SHT31;54093;50.014;19.984;2022-10-16T12:20:20;20.57;57.83
67165;SHT31;54093;50.014;19.984;2022-10-16T12:29:42;20.55;60.07
67165;SHT31;54093;50.014;19.984;2022-10-16T12:39:04;21.31;53.52
67165;SHT31;54093;50.014;19.984;2022-10-16T12:48:25;21.47;53.14
67165;SHT31;54093;50.014;19.984;2022-10-16T13:07:35;21.27;53.27
67165;SHT31;54093;50.014;19.984;2022-10-16T13:36:20;20.70;55.58
67165;SHT31;54093;50.014;19.984;2022-10-16T13:45:41;20.65;56.15
67165;SHT31;54093;50.014;19.984;2022-10-16T13:55:17;20.53;57.31
67165;SHT31;54093;50.014;19.984;2022-10-16T14:04:39;20.39;58.27
67165;SHT31;54093;50.014;19.984;2022-10-16T14:14:00;20.24;58.58
67165;SHT31;54093;50.014;19.984;2022-10-16T14:23:33;20.15;59.56
67165;SHT31;54093;50.014;19.984;2022-10-16T14:33:01;20.05;60.04
67165;SHT31;54093;50.014;19.984;2022-10-16T14:42:24;19.94;60.24
67165;SHT31;54093;50.014;19.984;2022-10-16T14:51:46;19.81;60.82
67165;SHT31;54093;50.014;19.984;2022-10-16T15:01:09;19.70;61.14
67165;SHT31;54093;50.014;19.984;2022-10-16T15:10:42;19.53;61.93
67165;SHT31;54093;50.014;19.984;2022-10-16T15:20:04;19.33;63.07
67165;SHT31;54093;50.014;19.984;2022-10-16T15:29:25;19.08;64.51
67165;SHT31;54093;50.014;19.984;2022-10-16T15:38:45;18.94;65.41
67165;SHT31;54093;50.014;19.984;2022-10-16T15:48:10;18.61;67.40
67165;SHT31;54093;50.014;19.984;2022-10-16T15:57:31;18.27;68.46
67165;SHT31;54093;50.014;19.984;2022-10-16T16:06:52;17.92;69.55
67165;SHT31;54093;50.014;19.984;2022-10-16T16:16:15;17.68;69.81
67165;SHT31;54093;50.014;19.984;2022-10-16T16:25:36;17.44;70.53
67165;SHT31;54093;50.014;19.984;2022-10-16T16:34:56;17.19;71.11
67165;SHT31;54093;50.014;19.984;2022-10-16T16:44:17;17.07;70.14
67165;SHT31;54093;50.014;19.984;2022-10-16T16:53:38;17.10;68.57
67165;SHT31;54093;50.014;19.984;2022-10-16T17:03:03;17.17;66.72
67165;SHT31;54093;50.014;19.984;2022-10-16T17:12:24;16.96;68.19
67165;SHT31;54093;50.014;19.984;2022-10-16T17:21:47;16.77;68.82
67165;SHT31;54093;50.014;19.984;2022-10-16T17:31:21;16.63;68.68
67165;SHT31;54093;50.014;19.984;2022-10-16T17:40:42;16.40;69.03
67165;SHT31;54093;50.014;19.984;2022-10-16T17:50:03;16.44;68.51
67165;SHT31;54093;50.014;19.984;2022-10-16T17:59:24;16.40;68.81
67165;SHT31;54093;50.014;19.984;2022-10-16T18:08:45;16.10;69.80
67165;SHT31;54093;50.014;19.984;2022-10-16T18:18:06;15.90;70.11
67165;SHT31;54093;50.014;19.984;2022-10-16T18:27:27;15.62;70.64
67165;SHT31;54093;50.014;19.984;2022-10-16T18:36:48;15.42;71.37
67165;SHT31;54093;50.014;19.984;2022-10-16T18:46:12;15.14;72.24
67165;SHT31;54093;50.014;19.984;2022-10-16T18:55:34;14.97;72.74
67165;SHT31;54093;50.014;19.984;2022-10-16T19:04:55;14.87;73.20
67165;SHT31;54093;50.014;19.984;2022-10-16T19:14:16;14.70;73.78
67165;SHT31;54093;50.014;19.984;2022-10-16T19:23:37;14.43;75.34
67165;SHT31;54093;50.014;19.984;2022-10-16T19:32:58;14.33;75.32
67165;SHT31;54093;50.014;19.984;2022-10-16T19:42:18;14.04;76.96
67165;SHT31;54093;50.014;19.984;2022-10-16T19:51:39;13.89;77.51
67165;SHT31;54093;50.014;19.984;2022-10-16T20:01:04;13.79;77.98
67165;SHT31;54093;50.014;19.984;2022-10-16T20:10:25;13.77;77.30
67165;SHT31;54093;50.014;19.984;2022-10-16T20:19:46;13.70;77.68
67165;SHT31;54093;50.014;19.984;2022-10-16T20:29:07;13.88;76.90
67165;SHT31;54093;50.014;19.984;2022-10-16T20:38:28;13.73;77.30
67165;SHT31;54093;50.014;19.984;2022-10-16T20:47:49;13.58;77.43
67165;SHT31;54093;50.014;19.984;2022-10-16T20:57:10;13.48;77.78
67165;SHT31;54093;50.014;19.984;2022-10-16T21:06:31;13.50;77.67
67165;SHT31;54093;50.014;19.984;2022-10-16T21:15:52;13.48;77.36
67165;SHT31;54093;50.014;19.984;2022-10-16T21:25:13;13.19;77.51
67165;SHT31;54093;50.014;19.984;2022-10-16T21:34:34;13.02;79.49
67165;SHT31;54093;50.014;19.984;2022-10-16T21:43:56;13.07;78.70
67165;SHT31;54093;50.014;19.984;2022-10-16T21:53:17;12.88;80.01
67165;SHT31;54093;50.014;19.984;2022-10-16T22:02:38;12.88;79.71
67165;SHT31;54093;50.014;19.984;2022-10-16T22:11:59;12.82;78.37
67165;SHT31;54093;50.014;19.984;2022-10-16T22:21:20;12.57;80.96
67165;SHT31;54093;50.014;19.984;2022-10-16T22:30:41;12.55;79.95
67165;SHT31;54093;50.014;19.984;2022-10-16T22:40:02;12.41;80.90
67165;SHT31;54093;50.014;19.984;2022-10-16T22:49:24;12.45;80.32
67165;SHT31;54093;50.014;19.984;2022-10-16T22:58:48;12.51;80.07
67165;SHT31;54093;50.014;19.984;2022-10-16T23:08:10;12.38;79.46
67165;SHT31;54093;50.014;19.984;2022-10-16T23:17:31;12.30;80.25
67165;SHT31;54093;50.014;19.984;2022-10-16T23:26:51;12.24;79.14
67165;SHT31;54093;50.014;19.984;2022-10-16T23:36:17;11.94;79.91
67165;SHT31;54093;50.014;19.984;2022-10-16T23:45:38;11.93;80.33
67165;SHT31;54093;50.014;19.984;2022-10-16T23:55:01;11.90;79.71
